Terminal Aerodrome Forecast
Issued by NWS Upton, NY

Home | Current Version | Previous Version | Text Only | Print | Product List | Glossary On
Versions: 1 2 3 4 5 6 7 8 9 10 11 12 13 14 15 16 17 18 19 20 21 22 23 24 25 26 27 28 29 30 31 32 33
109
FTUS41 KOKX 300859 AAB
TAFEWR
TAF AMD
KEWR 300859Z 3009/3112 13007KT P6SM BKN006 OVC015
      TEMPO 3009/3013 5SM -DZ BR
     FM301700 13007KT 5SM BR SCT007 BKN015
     FM302300 VRB04KT 4SM -DZ BR OVC007
     FM310700 VRB04KT 4SM -DZ BR OVC004=

USA.gov is the U.S. government's official web portal to all federal, state and local government web resources and services.